N749PL ENZV-BIKF
Flight info
| Callsign | N749PL |
|---|---|
| Flight time | 2h 38m |
| Altitude | 22000 |
| Route | ALUVA DCT VALDI/M046F220 DCT ROSTI DCT ING DCT NASBU NASBU5N |
| Aircraft | PC12/L-SDFGRWY/S |
Departure
| Time | 2026-04-12 03:58 |
|---|---|
| Airport | Stavanger Airport, Sola (ENZV) |
Arrival
| Time | 2026-04-12 06:36 |
|---|---|
| Airport | Keflavik International Airport (BIKF) |
| Time | Latitude | Longitude | Altitude | Speed | Heading |
|---|---|---|---|---|---|
| 2026-04-12 03:58 | 58.89272 | 5.63746 | 14 ft | 0 kts | 174° |
| 2026-04-12 03:58 | 58.89040 | 5.63741 | 16 ft | 68 kts | 178° |
| 2026-04-12 03:58 | 58.88472 | 5.63718 | 263 ft | 84 kts | 172° |
| 2026-04-12 03:58 | 58.87875 | 5.63707 | 646 ft | 87 kts | 168° |
| 2026-04-12 03:59 | 58.87246 | 5.63765 | 985 ft | 98 kts | 167° |
| 2026-04-12 03:59 | 58.86548 | 5.63805 | 1291 ft | 107 kts | 167° |
| 2026-04-12 03:59 | 58.85725 | 5.63844 | 1526 ft | 126 kts | 168° |
| 2026-04-12 03:59 | 58.84802 | 5.63863 | 1866 ft | 139 kts | 172° |
| 2026-04-12 04:00 | 58.83884 | 5.62959 | 2276 ft | 166 kts | 217° |
| 2026-04-12 04:00 | 58.83552 | 5.60813 | 2925 ft | 180 kts | 264° |
| 2026-04-12 04:00 | 58.84101 | 5.58659 | 3556 ft | 186 kts | 311° |
| 2026-04-12 04:00 | 58.85180 | 5.57325 | 4023 ft | 188 kts | 330° |
| 2026-04-12 04:01 | 58.86385 | 5.56293 | 4454 ft | 189 kts | 334° |
| 2026-04-12 04:01 | 58.87560 | 5.55258 | 4916 ft | 187 kts | 330° |
| 2026-04-12 04:01 | 58.88715 | 5.54139 | 5346 ft | 186 kts | 328° |
| 2026-04-12 04:01 | 58.89856 | 5.52966 | 5773 ft | 186 kts | 326° |
| 2026-04-12 04:02 | 58.90976 | 5.51771 | 6221 ft | 184 kts | 326° |
| 2026-04-12 04:02 | 58.93178 | 5.49355 | 7075 ft | 183 kts | 324° |
| 2026-04-12 04:02 | 58.94299 | 5.48105 | 7458 ft | 187 kts | 324° |
| 2026-04-12 04:03 | 58.95429 | 5.46839 | 7850 ft | 188 kts | 325° |
| 2026-04-12 04:03 | 58.96557 | 5.45573 | 8235 ft | 190 kts | 324° |
| 2026-04-12 04:03 | 58.97698 | 5.44289 | 8631 ft | 190 kts | 325° |
| 2026-04-12 04:03 | 58.98862 | 5.42977 | 9006 ft | 193 kts | 325° |
| 2026-04-12 04:04 | 59.00022 | 5.41669 | 9418 ft | 193 kts | 325° |
| 2026-04-12 04:04 | 59.01201 | 5.40337 | 9794 ft | 196 kts | 326° |
| 2026-04-12 04:04 | 59.02380 | 5.39004 | 10150 ft | 198 kts | 326° |
| 2026-04-12 04:04 | 59.03571 | 5.37656 | 10500 ft | 200 kts | 326° |
| 2026-04-12 04:05 | 59.04794 | 5.36271 | 10857 ft | 203 kts | 326° |
| 2026-04-12 04:05 | 59.06008 | 5.34895 | 11267 ft | 204 kts | 325° |
| 2026-04-12 04:05 | 59.07244 | 5.33493 | 11628 ft | 206 kts | 326° |
| 2026-04-12 04:05 | 59.08497 | 5.32070 | 12002 ft | 208 kts | 326° |
| 2026-04-12 04:06 | 59.09756 | 5.30639 | 12355 ft | 211 kts | 325° |
| 2026-04-12 04:06 | 59.10868 | 5.29374 | 12678 ft | 213 kts | 326° |
| 2026-04-12 04:06 | 59.11888 | 5.28213 | 12994 ft | 213 kts | 326° |
| 2026-04-12 04:06 | 59.13200 | 5.26719 | 13382 ft | 215 kts | 325° |
| 2026-04-12 04:07 | 59.14487 | 5.25253 | 13725 ft | 216 kts | 325° |
| 2026-04-12 04:07 | 59.15797 | 5.23757 | 14075 ft | 218 kts | 325° |
| 2026-04-12 04:07 | 59.17093 | 5.22277 | 14436 ft | 219 kts | 325° |
| 2026-04-12 04:07 | 59.18412 | 5.20770 | 14728 ft | 222 kts | 325° |
| 2026-04-12 04:08 | 59.19756 | 5.19232 | 15019 ft | 223 kts | 325° |
| 2026-04-12 04:08 | 59.21114 | 5.17675 | 15256 ft | 227 kts | 325° |
| 2026-04-12 04:08 | 59.22474 | 5.16117 | 15511 ft | 228 kts | 325° |
| 2026-04-12 04:08 | 59.23838 | 5.14552 | 15746 ft | 230 kts | 325° |
| 2026-04-12 04:09 | 59.25233 | 5.12950 | 15985 ft | 232 kts | 325° |
| 2026-04-12 04:09 | 59.26634 | 5.11337 | 16261 ft | 235 kts | 325° |
| 2026-04-12 04:09 | 59.28027 | 5.09734 | 16563 ft | 236 kts | 325° |
| 2026-04-12 04:09 | 59.29448 | 5.08099 | 16839 ft | 238 kts | 324° |
| 2026-04-12 04:10 | 59.30893 | 5.06431 | 17109 ft | 241 kts | 324° |
| 2026-04-12 04:10 | 59.32347 | 5.04754 | 17385 ft | 243 kts | 325° |
| 2026-04-12 04:10 | 59.33800 | 5.03076 | 17694 ft | 243 kts | 324° |
| 2026-04-12 04:10 | 59.35279 | 5.01366 | 17970 ft | 245 kts | 324° |
| 2026-04-12 04:11 | 59.36760 | 4.99650 | 18188 ft | 249 kts | 324° |
| 2026-04-12 04:11 | 59.38242 | 4.97879 | 18416 ft | 250 kts | 319° |
| 2026-04-12 04:11 | 59.39565 | 4.95651 | 18663 ft | 247 kts | 306° |
| 2026-04-12 04:11 | 59.40684 | 4.93131 | 18903 ft | 246 kts | 300° |
| 2026-04-12 04:12 | 59.41773 | 4.90493 | 19146 ft | 247 kts | 298° |
| 2026-04-12 04:12 | 59.42834 | 4.87849 | 19435 ft | 246 kts | 298° |
| 2026-04-12 04:12 | 59.43891 | 4.85209 | 19672 ft | 247 kts | 298° |
| 2026-04-12 04:12 | 59.44972 | 4.82515 | 19868 ft | 251 kts | 298° |
| 2026-04-12 04:13 | 59.46054 | 4.79825 | 20091 ft | 252 kts | 298° |
| 2026-04-12 04:13 | 59.47160 | 4.77082 | 20334 ft | 252 kts | 298° |
| 2026-04-12 04:13 | 59.48261 | 4.74347 | 20513 ft | 255 kts | 299° |
| 2026-04-12 04:13 | 59.49360 | 4.71621 | 20646 ft | 257 kts | 298° |
| 2026-04-12 04:14 | 59.50458 | 4.68887 | 20779 ft | 259 kts | 298° |
| 2026-04-12 04:14 | 59.51588 | 4.66078 | 21012 ft | 260 kts | 298° |
| 2026-04-12 04:14 | 59.52703 | 4.63302 | 21208 ft | 261 kts | 298° |
| 2026-04-12 04:14 | 59.53826 | 4.60509 | 21467 ft | 260 kts | 298° |
| 2026-04-12 04:15 | 59.54952 | 4.57698 | 21621 ft | 263 kts | 298° |
| 2026-04-12 04:15 | 59.56096 | 4.54839 | 21780 ft | 267 kts | 298° |
| 2026-04-12 04:15 | 59.57262 | 4.51912 | 21805 ft | 275 kts | 299° |
| 2026-04-12 04:15 | 59.58460 | 4.48903 | 21809 ft | 284 kts | 299° |
| 2026-04-12 04:16 | 59.59705 | 4.45777 | 21801 ft | 292 kts | 300° |
| 2026-04-12 04:16 | 59.60961 | 4.42625 | 21793 ft | 297 kts | 300° |
| 2026-04-12 04:16 | 59.62263 | 4.39355 | 21810 ft | 302 kts | 300° |
| 2026-04-12 04:16 | 59.63590 | 4.36016 | 21788 ft | 307 kts | 300° |
| 2026-04-12 04:17 | 59.64917 | 4.32672 | 21792 ft | 310 kts | 299° |
| 2026-04-12 04:17 | 59.66256 | 4.29294 | 21786 ft | 313 kts | 300° |
| 2026-04-12 04:17 | 59.67585 | 4.25938 | 21790 ft | 314 kts | 300° |
| 2026-04-12 04:17 | 59.68937 | 4.22520 | 21786 ft | 316 kts | 300° |
| 2026-04-12 04:18 | 59.70289 | 4.19093 | 21778 ft | 317 kts | 300° |
| 2026-04-12 04:18 | 59.71651 | 4.15639 | 21780 ft | 318 kts | 300° |
| 2026-04-12 04:18 | 59.73016 | 4.12170 | 21774 ft | 319 kts | 300° |
| 2026-04-12 04:18 | 59.74375 | 4.08712 | 21788 ft | 319 kts | 300° |
| 2026-04-12 04:19 | 59.75729 | 4.05259 | 21778 ft | 320 kts | 300° |
| 2026-04-12 04:19 | 59.77113 | 4.01725 | 21782 ft | 321 kts | 300° |
| 2026-04-12 04:19 | 59.78471 | 3.98251 | 21779 ft | 321 kts | 300° |
| 2026-04-12 04:19 | 59.79837 | 3.94752 | 21778 ft | 322 kts | 300° |
| 2026-04-12 04:20 | 59.81220 | 3.91204 | 21771 ft | 322 kts | 300° |
| 2026-04-12 04:20 | 59.82582 | 3.87707 | 21771 ft | 322 kts | 300° |
| 2026-04-12 04:20 | 59.83945 | 3.84198 | 21773 ft | 322 kts | 301° |
| 2026-04-12 04:20 | 59.85309 | 3.80683 | 21772 ft | 322 kts | 300° |
| 2026-04-12 04:21 | 59.86680 | 3.77143 | 21771 ft | 322 kts | 300° |
| 2026-04-12 04:21 | 59.88048 | 3.73607 | 21778 ft | 322 kts | 300° |
| 2026-04-12 04:21 | 59.89389 | 3.70135 | 21781 ft | 322 kts | 301° |
| 2026-04-12 04:21 | 59.90768 | 3.66558 | 21768 ft | 322 kts | 300° |
| 2026-04-12 04:22 | 59.92116 | 3.63058 | 21780 ft | 321 kts | 301° |
| 2026-04-12 04:22 | 59.93474 | 3.59525 | 21763 ft | 321 kts | 301° |
| 2026-04-12 04:22 | 59.94826 | 3.56005 | 21774 ft | 320 kts | 301° |
| 2026-04-12 04:22 | 59.96167 | 3.52508 | 21778 ft | 319 kts | 301° |
| 2026-04-12 04:23 | 59.97511 | 3.48995 | 21762 ft | 319 kts | 301° |
| 2026-04-12 04:23 | 59.98848 | 3.45499 | 21758 ft | 319 kts | 301° |
| 2026-04-12 04:23 | 60.00199 | 3.41955 | 21758 ft | 318 kts | 301° |
| 2026-04-12 04:23 | 60.01554 | 3.38401 | 21753 ft | 318 kts | 301° |
| 2026-04-12 04:24 | 60.02860 | 3.34967 | 21761 ft | 318 kts | 300° |
| 2026-04-12 04:24 | 60.04239 | 3.31338 | 21748 ft | 317 kts | 300° |
| 2026-04-12 04:24 | 60.05565 | 3.27842 | 21751 ft | 316 kts | 300° |
| 2026-04-12 04:24 | 60.06900 | 3.24317 | 21742 ft | 316 kts | 300° |
| 2026-04-12 04:25 | 60.08222 | 3.20821 | 21733 ft | 316 kts | 300° |
| 2026-04-12 04:25 | 60.09533 | 3.17349 | 21742 ft | 316 kts | 300° |
| 2026-04-12 04:25 | 60.10860 | 3.13829 | 21721 ft | 316 kts | 300° |
| 2026-04-12 04:25 | 60.12190 | 3.10296 | 21719 ft | 315 kts | 300° |
| 2026-04-12 04:26 | 60.13500 | 3.06811 | 21727 ft | 314 kts | 300° |
| 2026-04-12 04:26 | 60.14799 | 3.03350 | 21726 ft | 314 kts | 300° |
| 2026-04-12 04:26 | 60.16106 | 2.99860 | 21722 ft | 313 kts | 300° |
| 2026-04-12 04:26 | 60.17414 | 2.96366 | 21723 ft | 313 kts | 300° |
| 2026-04-12 04:27 | 60.18714 | 2.92887 | 21714 ft | 312 kts | 300° |
| 2026-04-12 04:27 | 60.20027 | 2.89367 | 21729 ft | 312 kts | 300° |
| 2026-04-12 04:27 | 60.21319 | 2.85897 | 21722 ft | 312 kts | 300° |
| 2026-04-12 04:27 | 60.22609 | 2.82429 | 21717 ft | 312 kts | 300° |
| 2026-04-12 04:28 | 60.23911 | 2.78920 | 21716 ft | 312 kts | 300° |
| 2026-04-12 04:28 | 60.25193 | 2.75462 | 21713 ft | 312 kts | 300° |
| 2026-04-12 04:28 | 60.26485 | 2.71974 | 21709 ft | 312 kts | 300° |
| 2026-04-12 04:28 | 60.27795 | 2.68434 | 21711 ft | 312 kts | 300° |
| 2026-04-12 04:29 | 60.29074 | 2.64967 | 21717 ft | 312 kts | 300° |
| 2026-04-12 04:29 | 60.30370 | 2.61450 | 21703 ft | 313 kts | 300° |
| 2026-04-12 04:29 | 60.31657 | 2.57954 | 21710 ft | 313 kts | 300° |
| 2026-04-12 04:29 | 60.32950 | 2.54432 | 21702 ft | 313 kts | 300° |
| 2026-04-12 04:30 | 60.34250 | 2.50890 | 21700 ft | 313 kts | 300° |
| 2026-04-12 04:30 | 60.35539 | 2.47373 | 21703 ft | 313 kts | 300° |
| 2026-04-12 04:30 | 60.36840 | 2.43818 | 21702 ft | 314 kts | 300° |
| 2026-04-12 04:30 | 60.38129 | 2.40286 | 21700 ft | 314 kts | 300° |
| 2026-04-12 04:31 | 60.39420 | 2.36746 | 21695 ft | 314 kts | 300° |
| 2026-04-12 04:31 | 60.40719 | 2.33179 | 21692 ft | 314 kts | 299° |
| 2026-04-12 04:31 | 60.41992 | 2.29681 | 21696 ft | 314 kts | 299° |
| 2026-04-12 04:31 | 60.43282 | 2.26127 | 21703 ft | 314 kts | 299° |
| 2026-04-12 04:32 | 60.44571 | 2.22571 | 21697 ft | 314 kts | 299° |
| 2026-04-12 04:32 | 60.45868 | 2.18986 | 21694 ft | 314 kts | 299° |
| 2026-04-12 04:32 | 60.47147 | 2.15447 | 21692 ft | 313 kts | 299° |
| 2026-04-12 04:32 | 60.48436 | 2.11876 | 21687 ft | 313 kts | 298° |
| 2026-04-12 04:33 | 60.49719 | 2.08316 | 21690 ft | 313 kts | 298° |
| 2026-04-12 04:33 | 60.51000 | 2.04756 | 21678 ft | 313 kts | 299° |
| 2026-04-12 04:33 | 60.52271 | 2.01217 | 21679 ft | 313 kts | 298° |
| 2026-04-12 04:33 | 60.53551 | 1.97647 | 21684 ft | 314 kts | 298° |
| 2026-04-12 04:34 | 60.54830 | 1.94075 | 21670 ft | 314 kts | 299° |
| 2026-04-12 04:34 | 60.56110 | 1.90492 | 21672 ft | 315 kts | 299° |
| 2026-04-12 04:34 | 60.57407 | 1.86860 | 21655 ft | 315 kts | 299° |
| 2026-04-12 04:34 | 60.58687 | 1.83269 | 21672 ft | 315 kts | 299° |
| 2026-04-12 04:35 | 60.59958 | 1.79695 | 21665 ft | 316 kts | 299° |
| 2026-04-12 04:35 | 60.61252 | 1.76055 | 21661 ft | 315 kts | 299° |
| 2026-04-12 04:35 | 60.62523 | 1.72474 | 21659 ft | 315 kts | 299° |
| 2026-04-12 04:35 | 60.63813 | 1.68831 | 21664 ft | 316 kts | 299° |
| 2026-04-12 04:36 | 60.65081 | 1.65245 | 21662 ft | 316 kts | 299° |
| 2026-04-12 04:36 | 60.66374 | 1.61584 | 21649 ft | 316 kts | 300° |
| 2026-04-12 04:36 | 60.67657 | 1.57946 | 21658 ft | 316 kts | 299° |
| 2026-04-12 04:36 | 60.68929 | 1.54332 | 21651 ft | 316 kts | 300° |
| 2026-04-12 04:37 | 60.70205 | 1.50699 | 21665 ft | 316 kts | 299° |
| 2026-04-12 04:37 | 60.71489 | 1.47040 | 21650 ft | 316 kts | 300° |
| 2026-04-12 04:37 | 60.72760 | 1.43415 | 21649 ft | 316 kts | 300° |
| 2026-04-12 04:37 | 60.74040 | 1.39757 | 21664 ft | 316 kts | 300° |
| 2026-04-12 04:38 | 60.75309 | 1.36122 | 21647 ft | 317 kts | 300° |
| 2026-04-12 04:38 | 60.76575 | 1.32490 | 21646 ft | 317 kts | 298° |
| 2026-04-12 04:38 | 60.77887 | 1.28721 | 21648 ft | 316 kts | 299° |
| 2026-04-12 04:38 | 60.79166 | 1.25044 | 21656 ft | 316 kts | 299° |
| 2026-04-12 04:39 | 60.80436 | 1.21383 | 21644 ft | 316 kts | 298° |
| 2026-04-12 04:39 | 60.81706 | 1.17718 | 21638 ft | 316 kts | 299° |
| 2026-04-12 04:39 | 60.82969 | 1.14068 | 21646 ft | 316 kts | 299° |
| 2026-04-12 04:39 | 60.84235 | 1.10401 | 21641 ft | 316 kts | 299° |
| 2026-04-12 04:40 | 60.85502 | 1.06730 | 21648 ft | 316 kts | 299° |
| 2026-04-12 04:40 | 60.86768 | 1.03050 | 21647 ft | 316 kts | 299° |
| 2026-04-12 04:40 | 60.88035 | 0.99365 | 21639 ft | 316 kts | 299° |
| 2026-04-12 04:40 | 60.89298 | 0.95682 | 21630 ft | 317 kts | 299° |
| 2026-04-12 04:41 | 60.90546 | 0.92042 | 21633 ft | 316 kts | 300° |
| 2026-04-12 04:41 | 60.91808 | 0.88353 | 21644 ft | 316 kts | 299° |
| 2026-04-12 04:41 | 60.93068 | 0.84663 | 21621 ft | 316 kts | 300° |
| 2026-04-12 04:41 | 60.94331 | 0.80963 | 21633 ft | 316 kts | 299° |
| 2026-04-12 04:42 | 60.95601 | 0.77231 | 21634 ft | 316 kts | 299° |
| 2026-04-12 04:42 | 60.96858 | 0.73537 | 21629 ft | 316 kts | 300° |
| 2026-04-12 04:42 | 60.98100 | 0.69874 | 21619 ft | 316 kts | 300° |
| 2026-04-12 04:43 | 61.00605 | 0.62480 | 21632 ft | 315 kts | 300° |
| 2026-04-12 04:43 | 61.01856 | 0.58774 | 21622 ft | 315 kts | 300° |
| 2026-04-12 04:43 | 61.03108 | 0.55061 | 21609 ft | 315 kts | 300° |
| 2026-04-12 04:43 | 61.04362 | 0.51339 | 21610 ft | 315 kts | 300° |
| 2026-04-12 04:44 | 61.05595 | 0.47670 | 21621 ft | 315 kts | 300° |
| 2026-04-12 04:44 | 61.06835 | 0.43975 | 21621 ft | 314 kts | 299° |
| 2026-04-12 04:44 | 61.08093 | 0.40222 | 21605 ft | 314 kts | 300° |
| 2026-04-12 04:44 | 61.09318 | 0.36561 | 21615 ft | 314 kts | 300° |
| 2026-04-12 04:45 | 61.10568 | 0.32817 | 21588 ft | 314 kts | 298° |
| 2026-04-12 04:45 | 61.11792 | 0.29148 | 21583 ft | 313 kts | 298° |
| 2026-04-12 04:45 | 61.13024 | 0.25452 | 21601 ft | 313 kts | 298° |
| 2026-04-12 04:45 | 61.14261 | 0.21725 | 21585 ft | 313 kts | 299° |
| 2026-04-12 04:46 | 61.15492 | 0.18019 | 21580 ft | 312 kts | 298° |
| 2026-04-12 04:46 | 61.16727 | 0.14291 | 21586 ft | 311 kts | 298° |
| 2026-04-12 04:46 | 61.17941 | 0.10622 | 21585 ft | 311 kts | 298° |
| 2026-04-12 04:46 | 61.19157 | 0.06939 | 21591 ft | 310 kts | 298° |
| 2026-04-12 04:47 | 61.20369 | 0.03241 | 21599 ft | 310 kts | 297° |
| 2026-04-12 04:47 | 61.21476 | -0.00619 | 21596 ft | 307 kts | 292° |
| 2026-04-12 04:47 | 61.22427 | -0.04517 | 21596 ft | 305 kts | 288° |
| 2026-04-12 04:47 | 61.23327 | -0.08549 | 21584 ft | 305 kts | 287° |
| 2026-04-12 04:48 | 61.24212 | -0.12563 | 21573 ft | 305 kts | 287° |
| 2026-04-12 04:48 | 61.25087 | -0.16545 | 21574 ft | 305 kts | 287° |
| 2026-04-12 04:48 | 61.25959 | -0.20525 | 21577 ft | 305 kts | 287° |
| 2026-04-12 04:48 | 61.26838 | -0.24546 | 21580 ft | 305 kts | 287° |
| 2026-04-12 04:49 | 61.27718 | -0.28582 | 21569 ft | 306 kts | 287° |
| 2026-04-12 04:49 | 61.28599 | -0.32621 | 21571 ft | 305 kts | 288° |
| 2026-04-12 04:49 | 61.29471 | -0.36632 | 21579 ft | 305 kts | 288° |
| 2026-04-12 04:49 | 61.30346 | -0.40668 | 21564 ft | 306 kts | 288° |
| 2026-04-12 04:50 | 61.31210 | -0.44660 | 21555 ft | 305 kts | 287° |
| 2026-04-12 04:50 | 61.32082 | -0.48709 | 21582 ft | 305 kts | 288° |
| 2026-04-12 04:50 | 61.32950 | -0.52724 | 21556 ft | 305 kts | 288° |
| 2026-04-12 04:50 | 61.33825 | -0.56780 | 21571 ft | 305 kts | 288° |
| 2026-04-12 04:51 | 61.34685 | -0.60776 | 21566 ft | 305 kts | 288° |
| 2026-04-12 04:51 | 61.35556 | -0.64834 | 21546 ft | 305 kts | 288° |
| 2026-04-12 04:51 | 61.36410 | -0.68821 | 21562 ft | 304 kts | 287° |
| 2026-04-12 04:51 | 61.37275 | -0.72867 | 21546 ft | 305 kts | 287° |
| 2026-04-12 04:52 | 61.38137 | -0.76907 | 21543 ft | 304 kts | 287° |
| 2026-04-12 04:52 | 61.38994 | -0.80931 | 21548 ft | 304 kts | 287° |
| 2026-04-12 04:52 | 61.39852 | -0.84971 | 21543 ft | 304 kts | 287° |
| 2026-04-12 04:52 | 61.40699 | -0.88964 | 21526 ft | 303 kts | 287° |
| 2026-04-12 04:53 | 61.41555 | -0.93007 | 21548 ft | 303 kts | 287° |
| 2026-04-12 04:53 | 61.42403 | -0.97020 | 21544 ft | 303 kts | 287° |
| 2026-04-12 04:53 | 61.44103 | -1.05096 | 21535 ft | 302 kts | 287° |
| 2026-04-12 04:54 | 61.44940 | -1.09078 | 21534 ft | 302 kts | 287° |
| 2026-04-12 04:54 | 61.45795 | -1.13155 | 21534 ft | 302 kts | 288° |
| 2026-04-12 04:54 | 61.46629 | -1.17146 | 21534 ft | 302 kts | 287° |
| 2026-04-12 04:54 | 61.47474 | -1.21193 | 21530 ft | 302 kts | 288° |
| 2026-04-12 04:55 | 61.48321 | -1.25260 | 21528 ft | 302 kts | 287° |
| 2026-04-12 04:55 | 61.49153 | -1.29261 | 21525 ft | 302 kts | 288° |
| 2026-04-12 04:55 | 61.49987 | -1.33273 | 21525 ft | 302 kts | 287° |
| 2026-04-12 04:55 | 61.50827 | -1.37331 | 21547 ft | 302 kts | 287° |
| 2026-04-12 04:56 | 61.51660 | -1.41364 | 21522 ft | 303 kts | 288° |
| 2026-04-12 04:56 | 61.52486 | -1.45364 | 21533 ft | 302 kts | 288° |
| 2026-04-12 04:56 | 61.53326 | -1.49446 | 21539 ft | 302 kts | 288° |
| 2026-04-12 04:56 | 61.54145 | -1.53432 | 21519 ft | 302 kts | 288° |
| 2026-04-12 04:57 | 61.54977 | -1.57487 | 21524 ft | 302 kts | 288° |
| 2026-04-12 04:57 | 61.55806 | -1.61534 | 21512 ft | 301 kts | 288° |
| 2026-04-12 04:57 | 61.56625 | -1.65541 | 21519 ft | 301 kts | 287° |
| 2026-04-12 04:57 | 61.57455 | -1.69612 | 21511 ft | 301 kts | 287° |
| 2026-04-12 04:58 | 61.58275 | -1.73637 | 21513 ft | 300 kts | 287° |
| 2026-04-12 04:58 | 61.59089 | -1.77649 | 21503 ft | 300 kts | 287° |
| 2026-04-12 04:58 | 61.59908 | -1.81686 | 21524 ft | 299 kts | 287° |
| 2026-04-12 04:58 | 61.60722 | -1.85718 | 21502 ft | 300 kts | 287° |
| 2026-04-12 04:59 | 61.61534 | -1.89739 | 21507 ft | 299 kts | 287° |
| 2026-04-12 04:59 | 61.62342 | -1.93745 | 21502 ft | 299 kts | 287° |
| 2026-04-12 04:59 | 61.63160 | -1.97815 | 21489 ft | 299 kts | 287° |
| 2026-04-12 04:59 | 61.63968 | -2.01840 | 21499 ft | 298 kts | 287° |
| 2026-04-12 05:00 | 61.64774 | -2.05863 | 21498 ft | 298 kts | 287° |
| 2026-04-12 05:00 | 61.65581 | -2.09898 | 21493 ft | 298 kts | 287° |
| 2026-04-12 05:00 | 61.66383 | -2.13920 | 21493 ft | 298 kts | 287° |
| 2026-04-12 05:00 | 61.67183 | -2.17936 | 21492 ft | 298 kts | 287° |
| 2026-04-12 05:01 | 61.67976 | -2.21926 | 21493 ft | 298 kts | 287° |
| 2026-04-12 05:01 | 61.68776 | -2.25966 | 21487 ft | 298 kts | 287° |
| 2026-04-12 05:01 | 61.69562 | -2.29939 | 21493 ft | 297 kts | 287° |
| 2026-04-12 05:01 | 61.70359 | -2.33970 | 21486 ft | 297 kts | 287° |
| 2026-04-12 05:02 | 61.71149 | -2.37976 | 21490 ft | 297 kts | 287° |
| 2026-04-12 05:02 | 61.71948 | -2.42038 | 21491 ft | 297 kts | 287° |
| 2026-04-12 05:02 | 61.72737 | -2.46058 | 21487 ft | 297 kts | 287° |
| 2026-04-12 05:02 | 61.73523 | -2.50068 | 21494 ft | 297 kts | 287° |
| 2026-04-12 05:03 | 61.74303 | -2.54055 | 21485 ft | 297 kts | 288° |
| 2026-04-12 05:03 | 61.75093 | -2.58104 | 21486 ft | 297 kts | 287° |
| 2026-04-12 05:03 | 61.75872 | -2.62104 | 21487 ft | 297 kts | 288° |
| 2026-04-12 05:03 | 61.76652 | -2.66119 | 21481 ft | 297 kts | 287° |
| 2026-04-12 05:04 | 61.77435 | -2.70157 | 21476 ft | 297 kts | 287° |
| 2026-04-12 05:04 | 61.78219 | -2.74205 | 21476 ft | 297 kts | 287° |
| 2026-04-12 05:04 | 61.78995 | -2.78223 | 21470 ft | 297 kts | 287° |
| 2026-04-12 05:04 | 61.79774 | -2.82263 | 21466 ft | 297 kts | 287° |
| 2026-04-12 05:05 | 61.80555 | -2.86316 | 21464 ft | 296 kts | 287° |
| 2026-04-12 05:05 | 61.81323 | -2.90316 | 21461 ft | 296 kts | 287° |
| 2026-04-12 05:05 | 61.82097 | -2.94355 | 21471 ft | 295 kts | 287° |
| 2026-04-12 05:05 | 61.82858 | -2.98335 | 21467 ft | 296 kts | 287° |
| 2026-04-12 05:06 | 61.83624 | -3.02346 | 21468 ft | 295 kts | 287° |
| 2026-04-12 05:06 | 61.84398 | -3.06415 | 21459 ft | 296 kts | 287° |
| 2026-04-12 05:06 | 61.85157 | -3.10409 | 21463 ft | 295 kts | 287° |
| 2026-04-12 05:06 | 61.85918 | -3.14419 | 21463 ft | 295 kts | 287° |
| 2026-04-12 05:07 | 61.86687 | -3.18480 | 21464 ft | 295 kts | 287° |
| 2026-04-12 05:07 | 61.87450 | -3.22521 | 21469 ft | 295 kts | 287° |
| 2026-04-12 05:07 | 61.88207 | -3.26533 | 21473 ft | 295 kts | 287° |
| 2026-04-12 05:07 | 61.88964 | -3.30557 | 21454 ft | 295 kts | 287° |
| 2026-04-12 05:08 | 61.89712 | -3.34540 | 21457 ft | 295 kts | 287° |
| 2026-04-12 05:08 | 61.90475 | -3.38611 | 21460 ft | 295 kts | 287° |
| 2026-04-12 05:08 | 61.91228 | -3.42638 | 21453 ft | 295 kts | 287° |
| 2026-04-12 05:08 | 61.91976 | -3.46651 | 21450 ft | 295 kts | 287° |
| 2026-04-12 05:09 | 61.92734 | -3.50719 | 21443 ft | 295 kts | 287° |
| 2026-04-12 05:09 | 61.93480 | -3.54731 | 21444 ft | 295 kts | 287° |
| 2026-04-12 05:09 | 61.94237 | -3.58813 | 21447 ft | 295 kts | 287° |
| 2026-04-12 05:09 | 61.94979 | -3.62822 | 21453 ft | 295 kts | 287° |
| 2026-04-12 05:10 | 61.95733 | -3.66906 | 21448 ft | 295 kts | 286° |
| 2026-04-12 05:10 | 61.96470 | -3.70906 | 21454 ft | 294 kts | 286° |
| 2026-04-12 05:10 | 61.97221 | -3.74984 | 21459 ft | 294 kts | 286° |
| 2026-04-12 05:10 | 61.97958 | -3.79002 | 21456 ft | 294 kts | 286° |
| 2026-04-12 05:11 | 61.98694 | -3.83019 | 21449 ft | 294 kts | 286° |
| 2026-04-12 05:11 | 61.99440 | -3.87105 | 21444 ft | 294 kts | 286° |
| 2026-04-12 05:11 | 62.00172 | -3.91120 | 21442 ft | 294 kts | 286° |
| 2026-04-12 05:11 | 62.00911 | -3.95179 | 21432 ft | 294 kts | 286° |
| 2026-04-12 05:12 | 62.01646 | -3.99222 | 21426 ft | 294 kts | 286° |
| 2026-04-12 05:12 | 62.02379 | -4.03267 | 21429 ft | 294 kts | 286° |
| 2026-04-12 05:12 | 62.03113 | -4.07321 | 21432 ft | 293 kts | 286° |
| 2026-04-12 05:12 | 62.03847 | -4.11390 | 21432 ft | 293 kts | 286° |
| 2026-04-12 05:13 | 62.04578 | -4.15452 | 21429 ft | 294 kts | 286° |
| 2026-04-12 05:13 | 62.05306 | -4.19496 | 21434 ft | 294 kts | 286° |
| 2026-04-12 05:13 | 62.06034 | -4.23560 | 21427 ft | 293 kts | 287° |
| 2026-04-12 05:13 | 62.06759 | -4.27608 | 21431 ft | 293 kts | 286° |
| 2026-04-12 05:14 | 62.07479 | -4.31641 | 21428 ft | 293 kts | 287° |
| 2026-04-12 05:14 | 62.08207 | -4.35729 | 21422 ft | 294 kts | 287° |
| 2026-04-12 05:14 | 62.08920 | -4.39736 | 21424 ft | 293 kts | 286° |
| 2026-04-12 05:14 | 62.09646 | -4.43826 | 21421 ft | 294 kts | 287° |
| 2026-04-12 05:15 | 62.10365 | -4.47885 | 21420 ft | 294 kts | 287° |
| 2026-04-12 05:15 | 62.11089 | -4.51983 | 21407 ft | 294 kts | 287° |
| 2026-04-12 05:15 | 62.11808 | -4.56063 | 21408 ft | 294 kts | 287° |
| 2026-04-12 05:15 | 62.12521 | -4.60110 | 21415 ft | 293 kts | 287° |
| 2026-04-12 05:16 | 62.13232 | -4.64161 | 21405 ft | 294 kts | 287° |
| 2026-04-12 05:16 | 62.13949 | -4.68253 | 21409 ft | 293 kts | 285° |
| 2026-04-12 05:16 | 62.14656 | -4.72298 | 21413 ft | 293 kts | 285° |
| 2026-04-12 05:16 | 62.15373 | -4.76412 | 21405 ft | 293 kts | 285° |
| 2026-04-12 05:17 | 62.16076 | -4.80445 | 21409 ft | 293 kts | 285° |
| 2026-04-12 05:17 | 62.16790 | -4.84562 | 21404 ft | 293 kts | 286° |
| 2026-04-12 05:17 | 62.17498 | -4.88647 | 21404 ft | 293 kts | 286° |
| 2026-04-12 05:17 | 62.18201 | -4.92709 | 21405 ft | 293 kts | 286° |
| 2026-04-12 05:18 | 62.18899 | -4.96756 | 21406 ft | 293 kts | 286° |
| 2026-04-12 05:18 | 62.19612 | -5.00891 | 21409 ft | 293 kts | 286° |
| 2026-04-12 05:18 | 62.20306 | -5.04931 | 21408 ft | 293 kts | 286° |
| 2026-04-12 05:18 | 62.21015 | -5.09072 | 21410 ft | 293 kts | 286° |
| 2026-04-12 05:19 | 62.21713 | -5.13149 | 21406 ft | 293 kts | 286° |
| 2026-04-12 05:19 | 62.22406 | -5.17214 | 21400 ft | 293 kts | 286° |
| 2026-04-12 05:19 | 62.23101 | -5.21291 | 21400 ft | 293 kts | 286° |
| 2026-04-12 05:19 | 62.23807 | -5.25447 | 21391 ft | 294 kts | 286° |
| 2026-04-12 05:20 | 62.24501 | -5.29536 | 21395 ft | 293 kts | 286° |
| 2026-04-12 05:20 | 62.25190 | -5.33609 | 21389 ft | 293 kts | 286° |
| 2026-04-12 05:20 | 62.25888 | -5.37748 | 21392 ft | 293 kts | 286° |
| 2026-04-12 05:20 | 62.26577 | -5.41837 | 21386 ft | 293 kts | 286° |
| 2026-04-12 05:21 | 62.27271 | -5.45960 | 21389 ft | 293 kts | 286° |
| 2026-04-12 05:21 | 62.27953 | -5.50031 | 21388 ft | 293 kts | 287° |
| 2026-04-12 05:21 | 62.28640 | -5.54139 | 21384 ft | 293 kts | 287° |
| 2026-04-12 05:21 | 62.29327 | -5.58249 | 21390 ft | 293 kts | 287° |
| 2026-04-12 05:22 | 62.30011 | -5.62356 | 21395 ft | 293 kts | 286° |
| 2026-04-12 05:22 | 62.30673 | -5.66337 | 21389 ft | 293 kts | 285° |
| 2026-04-12 05:22 | 62.31376 | -5.70580 | 21377 ft | 293 kts | 285° |
| 2026-04-12 05:22 | 62.32055 | -5.74679 | 21379 ft | 293 kts | 285° |
| 2026-04-12 05:23 | 62.32741 | -5.78837 | 21376 ft | 293 kts | 285° |
| 2026-04-12 05:23 | 62.33420 | -5.82956 | 21366 ft | 293 kts | 285° |
| 2026-04-12 05:23 | 62.34095 | -5.87064 | 21376 ft | 292 kts | 285° |
| 2026-04-12 05:23 | 62.34766 | -5.91152 | 21375 ft | 293 kts | 285° |
| 2026-04-12 05:24 | 62.35444 | -5.95297 | 21366 ft | 293 kts | 285° |
| 2026-04-12 05:24 | 62.36116 | -5.99413 | 21372 ft | 292 kts | 286° |
| 2026-04-12 05:24 | 62.36781 | -6.03495 | 21368 ft | 292 kts | 286° |
| 2026-04-12 05:24 | 62.37459 | -6.07670 | 21375 ft | 292 kts | 286° |
| 2026-04-12 05:25 | 62.38126 | -6.11779 | 21366 ft | 292 kts | 286° |
| 2026-04-12 05:25 | 62.38793 | -6.15906 | 21373 ft | 292 kts | 286° |
| 2026-04-12 05:25 | 62.39459 | -6.20031 | 21373 ft | 292 kts | 286° |
| 2026-04-12 05:25 | 62.40127 | -6.24179 | 21378 ft | 292 kts | 286° |
| 2026-04-12 05:26 | 62.40790 | -6.28306 | 21371 ft | 292 kts | 286° |
| 2026-04-12 05:26 | 62.41450 | -6.32422 | 21374 ft | 292 kts | 286° |
| 2026-04-12 05:26 | 62.42109 | -6.36544 | 21373 ft | 292 kts | 286° |
| 2026-04-12 05:26 | 62.42770 | -6.40688 | 21375 ft | 292 kts | 286° |
| 2026-04-12 05:27 | 62.43433 | -6.44847 | 21367 ft | 292 kts | 286° |
| 2026-04-12 05:27 | 62.44090 | -6.48985 | 21373 ft | 291 kts | 286° |
| 2026-04-12 05:27 | 62.44739 | -6.53080 | 21371 ft | 292 kts | 286° |
| 2026-04-12 05:27 | 62.45393 | -6.57216 | 21362 ft | 291 kts | 286° |
| 2026-04-12 05:28 | 62.46044 | -6.61346 | 21369 ft | 291 kts | 286° |
| 2026-04-12 05:28 | 62.46702 | -6.65525 | 21364 ft | 291 kts | 285° |
| 2026-04-12 05:28 | 62.47345 | -6.69623 | 21363 ft | 291 kts | 285° |
| 2026-04-12 05:28 | 62.47995 | -6.73765 | 21364 ft | 291 kts | 285° |
| 2026-04-12 05:29 | 62.48639 | -6.77892 | 21359 ft | 291 kts | 285° |
| 2026-04-12 05:29 | 62.49285 | -6.82033 | 21364 ft | 291 kts | 285° |
| 2026-04-12 05:29 | 62.49931 | -6.86186 | 21362 ft | 290 kts | 286° |
| 2026-04-12 05:29 | 62.50570 | -6.90301 | 21364 ft | 290 kts | 286° |
| 2026-04-12 05:30 | 62.51213 | -6.94454 | 21355 ft | 290 kts | 286° |
| 2026-04-12 05:30 | 62.51846 | -6.98554 | 21359 ft | 289 kts | 286° |
| 2026-04-12 05:30 | 62.52483 | -7.02686 | 21360 ft | 289 kts | 286° |
| 2026-04-12 05:30 | 62.53113 | -7.06783 | 21356 ft | 289 kts | 286° |
| 2026-04-12 05:31 | 62.53740 | -7.10869 | 21361 ft | 288 kts | 286° |
| 2026-04-12 05:31 | 62.54369 | -7.14982 | 21362 ft | 288 kts | 286° |
| 2026-04-12 05:31 | 62.55004 | -7.19141 | 21358 ft | 288 kts | 286° |
| 2026-04-12 05:31 | 62.55627 | -7.23228 | 21359 ft | 288 kts | 286° |
| 2026-04-12 05:32 | 62.56251 | -7.27335 | 21357 ft | 288 kts | 286° |
| 2026-04-12 05:32 | 62.56874 | -7.31449 | 21350 ft | 288 kts | 286° |
| 2026-04-12 05:32 | 62.57497 | -7.35566 | 21346 ft | 288 kts | 287° |
| 2026-04-12 05:32 | 62.58125 | -7.39728 | 21348 ft | 288 kts | 287° |
| 2026-04-12 05:33 | 62.58742 | -7.43825 | 21346 ft | 288 kts | 287° |
| 2026-04-12 05:33 | 62.59360 | -7.47943 | 21338 ft | 288 kts | 287° |
| 2026-04-12 05:33 | 62.59975 | -7.52050 | 21347 ft | 287 kts | 287° |
| 2026-04-12 05:33 | 62.60592 | -7.56172 | 21343 ft | 287 kts | 287° |
| 2026-04-12 05:34 | 62.61205 | -7.60282 | 21341 ft | 287 kts | 287° |
| 2026-04-12 05:34 | 62.61816 | -7.64398 | 21337 ft | 287 kts | 287° |
| 2026-04-12 05:34 | 62.62434 | -7.68561 | 21340 ft | 286 kts | 286° |
| 2026-04-12 05:34 | 62.63039 | -7.72642 | 21343 ft | 286 kts | 286° |
| 2026-04-12 05:35 | 62.63640 | -7.76710 | 21343 ft | 285 kts | 286° |
| 2026-04-12 05:35 | 62.64245 | -7.80822 | 21348 ft | 285 kts | 286° |
| 2026-04-12 05:35 | 62.64852 | -7.84948 | 21349 ft | 285 kts | 286° |
| 2026-04-12 05:35 | 62.65448 | -7.89012 | 21350 ft | 284 kts | 286° |
| 2026-04-12 05:36 | 62.66041 | -7.93067 | 21350 ft | 284 kts | 286° |
| 2026-04-12 05:36 | 62.66640 | -7.97172 | 21340 ft | 284 kts | 286° |
| 2026-04-12 05:36 | 62.67236 | -8.01271 | 21347 ft | 284 kts | 286° |
| 2026-04-12 05:36 | 62.67828 | -8.05341 | 21346 ft | 283 kts | 286° |
| 2026-04-12 05:37 | 62.68416 | -8.09404 | 21338 ft | 283 kts | 286° |
| 2026-04-12 05:37 | 62.69008 | -8.13495 | 21338 ft | 283 kts | 286° |
| 2026-04-12 05:37 | 62.69597 | -8.17580 | 21327 ft | 283 kts | 286° |
| 2026-04-12 05:37 | 62.70183 | -8.21655 | 21326 ft | 283 kts | 286° |
| 2026-04-12 05:38 | 62.70770 | -8.25744 | 21328 ft | 283 kts | 286° |
| 2026-04-12 05:38 | 62.71351 | -8.29810 | 21327 ft | 283 kts | 286° |
| 2026-04-12 05:38 | 62.71939 | -8.33922 | 21327 ft | 282 kts | 286° |
| 2026-04-12 05:38 | 62.72520 | -8.38000 | 21325 ft | 282 kts | 286° |
| 2026-04-12 05:39 | 62.73093 | -8.42040 | 21328 ft | 282 kts | 286° |
| 2026-04-12 05:39 | 62.73679 | -8.46165 | 21329 ft | 282 kts | 286° |
| 2026-04-12 05:39 | 62.74249 | -8.50196 | 21327 ft | 282 kts | 286° |
| 2026-04-12 05:39 | 62.74822 | -8.54262 | 21328 ft | 281 kts | 286° |
| 2026-04-12 05:40 | 62.75393 | -8.58320 | 21334 ft | 281 kts | 286° |
| 2026-04-12 05:40 | 62.75963 | -8.62383 | 21336 ft | 281 kts | 286° |
| 2026-04-12 05:40 | 62.76535 | -8.66461 | 21337 ft | 280 kts | 285° |
| 2026-04-12 05:40 | 62.77100 | -8.70510 | 21329 ft | 281 kts | 285° |
| 2026-04-12 05:41 | 62.77668 | -8.74581 | 21331 ft | 280 kts | 285° |
| 2026-04-12 05:41 | 62.78233 | -8.78652 | 21340 ft | 279 kts | 285° |
| 2026-04-12 05:41 | 62.78797 | -8.82718 | 21337 ft | 279 kts | 285° |
| 2026-04-12 05:41 | 62.79353 | -8.86739 | 21339 ft | 279 kts | 285° |
| 2026-04-12 05:42 | 62.79910 | -8.90776 | 21337 ft | 279 kts | 285° |
| 2026-04-12 05:42 | 62.80472 | -8.94856 | 21333 ft | 279 kts | 285° |
| 2026-04-12 05:42 | 62.81029 | -8.98915 | 21334 ft | 279 kts | 285° |
| 2026-04-12 05:43 | 62.82138 | -9.07020 | 21326 ft | 279 kts | 285° |
| 2026-04-12 05:43 | 62.82684 | -9.11029 | 21322 ft | 278 kts | 285° |
| 2026-04-12 05:43 | 62.83236 | -9.15086 | 21320 ft | 278 kts | 285° |
| 2026-04-12 05:43 | 62.83784 | -9.19129 | 21315 ft | 278 kts | 285° |
| 2026-04-12 05:44 | 62.84335 | -9.23202 | 21318 ft | 278 kts | 285° |
| 2026-04-12 05:44 | 62.84876 | -9.27211 | 21321 ft | 278 kts | 285° |
| 2026-04-12 05:44 | 62.85426 | -9.31299 | 21322 ft | 277 kts | 285° |
| 2026-04-12 05:44 | 62.85965 | -9.35313 | 21324 ft | 277 kts | 285° |
| 2026-04-12 05:45 | 62.86507 | -9.39353 | 21324 ft | 277 kts | 285° |
| 2026-04-12 05:45 | 62.87048 | -9.43403 | 21323 ft | 277 kts | 285° |
| 2026-04-12 05:45 | 62.87587 | -9.47455 | 21329 ft | 277 kts | 285° |
| 2026-04-12 05:45 | 62.88121 | -9.51467 | 21333 ft | 277 kts | 286° |
| 2026-04-12 05:46 | 62.88656 | -9.55504 | 21332 ft | 277 kts | 286° |
| 2026-04-12 05:46 | 62.89189 | -9.59532 | 21330 ft | 277 kts | 286° |
| 2026-04-12 05:46 | 62.89725 | -9.63599 | 21323 ft | 277 kts | 286° |
| 2026-04-12 05:46 | 62.90259 | -9.67657 | 21326 ft | 277 kts | 285° |
| 2026-04-12 05:47 | 62.90789 | -9.71697 | 21321 ft | 277 kts | 285° |
| 2026-04-12 05:47 | 62.91316 | -9.75722 | 21322 ft | 277 kts | 285° |
| 2026-04-12 05:47 | 62.91844 | -9.79763 | 21324 ft | 277 kts | 285° |
| 2026-04-12 05:47 | 62.92372 | -9.83816 | 21320 ft | 277 kts | 285° |
| 2026-04-12 05:48 | 62.92903 | -9.87909 | 21326 ft | 277 kts | 285° |
| 2026-04-12 05:48 | 62.93427 | -9.91951 | 21323 ft | 276 kts | 285° |
| 2026-04-12 05:48 | 62.93950 | -9.95995 | 21321 ft | 276 kts | 285° |
| 2026-04-12 05:48 | 62.94473 | -10.00053 | 21322 ft | 276 kts | 285° |
| 2026-04-12 05:49 | 62.94992 | -10.04092 | 21324 ft | 276 kts | 285° |
| 2026-04-12 05:49 | 62.95511 | -10.08134 | 21324 ft | 276 kts | 285° |
| 2026-04-12 05:49 | 62.96028 | -10.12176 | 21328 ft | 276 kts | 285° |
| 2026-04-12 05:49 | 62.96545 | -10.16230 | 21332 ft | 275 kts | 285° |
| 2026-04-12 05:50 | 62.97055 | -10.20242 | 21336 ft | 275 kts | 285° |
| 2026-04-12 05:50 | 62.97568 | -10.24282 | 21338 ft | 275 kts | 285° |
| 2026-04-12 05:50 | 62.98081 | -10.28333 | 21339 ft | 275 kts | 285° |
| 2026-04-12 05:50 | 62.98591 | -10.32365 | 21337 ft | 275 kts | 285° |
| 2026-04-12 05:51 | 62.99104 | -10.36445 | 21334 ft | 275 kts | 285° |
| 2026-04-12 05:51 | 62.99609 | -10.40468 | 21324 ft | 276 kts | 285° |
| 2026-04-12 05:51 | 63.00117 | -10.44520 | 21324 ft | 275 kts | 285° |
| 2026-04-12 05:51 | 63.00625 | -10.48589 | 21330 ft | 275 kts | 285° |
| 2026-04-12 05:52 | 63.01128 | -10.52626 | 21328 ft | 275 kts | 285° |
| 2026-04-12 05:52 | 63.01632 | -10.56681 | 21328 ft | 275 kts | 285° |
| 2026-04-12 05:52 | 63.02133 | -10.60722 | 21324 ft | 275 kts | 285° |
| 2026-04-12 05:52 | 63.02638 | -10.64809 | 21325 ft | 275 kts | 285° |
| 2026-04-12 05:53 | 63.03135 | -10.68839 | 21327 ft | 275 kts | 285° |
| 2026-04-12 05:53 | 63.03636 | -10.72907 | 21328 ft | 275 kts | 285° |
| 2026-04-12 05:53 | 63.04136 | -10.76990 | 21326 ft | 275 kts | 285° |
| 2026-04-12 05:53 | 63.04629 | -10.81016 | 21325 ft | 275 kts | 285° |
| 2026-04-12 05:54 | 63.05125 | -10.85086 | 21322 ft | 275 kts | 285° |
| 2026-04-12 05:54 | 63.05620 | -10.89158 | 21311 ft | 275 kts | 284° |
| 2026-04-12 05:54 | 63.06113 | -10.93221 | 21307 ft | 275 kts | 285° |
| 2026-04-12 05:54 | 63.06603 | -10.97264 | 21315 ft | 274 kts | 285° |
| 2026-04-12 05:55 | 63.07089 | -11.01293 | 21315 ft | 274 kts | 285° |
| 2026-04-12 05:55 | 63.07578 | -11.05351 | 21321 ft | 273 kts | 285° |
| 2026-04-12 05:55 | 63.08062 | -11.09384 | 21326 ft | 273 kts | 285° |
| 2026-04-12 05:55 | 63.08546 | -11.13430 | 21328 ft | 273 kts | 285° |
| 2026-04-12 05:56 | 63.09027 | -11.17463 | 21326 ft | 273 kts | 285° |
| 2026-04-12 05:56 | 63.09514 | -11.21556 | 21327 ft | 273 kts | 285° |
| 2026-04-12 05:56 | 63.09994 | -11.25599 | 21325 ft | 274 kts | 285° |
| 2026-04-12 05:56 | 63.10470 | -11.29619 | 21329 ft | 274 kts | 285° |
| 2026-04-12 05:57 | 63.10955 | -11.33725 | 21329 ft | 274 kts | 285° |
| 2026-04-12 05:57 | 63.11430 | -11.37759 | 21326 ft | 274 kts | 285° |
| 2026-04-12 05:57 | 63.11909 | -11.41841 | 21329 ft | 274 kts | 285° |
| 2026-04-12 05:57 | 63.12384 | -11.45897 | 21329 ft | 274 kts | 285° |
| 2026-04-12 05:58 | 63.12857 | -11.49951 | 21326 ft | 274 kts | 285° |
| 2026-04-12 05:58 | 63.13328 | -11.53996 | 21327 ft | 273 kts | 285° |
| 2026-04-12 05:58 | 63.13802 | -11.58074 | 21326 ft | 273 kts | 285° |
| 2026-04-12 05:58 | 63.14271 | -11.62124 | 21324 ft | 273 kts | 286° |
| 2026-04-12 05:59 | 63.14745 | -11.66223 | 21320 ft | 273 kts | 285° |
| 2026-04-12 05:59 | 63.15210 | -11.70263 | 21313 ft | 274 kts | 285° |
| 2026-04-12 05:59 | 63.15677 | -11.74329 | 21314 ft | 273 kts | 285° |
| 2026-04-12 05:59 | 63.16143 | -11.78409 | 21319 ft | 273 kts | 285° |
| 2026-04-12 06:00 | 63.16607 | -11.82466 | 21321 ft | 273 kts | 285° |
| 2026-04-12 06:00 | 63.17068 | -11.86522 | 21326 ft | 273 kts | 285° |
| 2026-04-12 06:00 | 63.17528 | -11.90569 | 21329 ft | 272 kts | 285° |
| 2026-04-12 06:00 | 63.17985 | -11.94608 | 21329 ft | 272 kts | 285° |
| 2026-04-12 06:01 | 63.18447 | -11.98696 | 21331 ft | 272 kts | 285° |
| 2026-04-12 06:01 | 63.18903 | -12.02748 | 21329 ft | 272 kts | 285° |
| 2026-04-12 06:01 | 63.19355 | -12.06776 | 21327 ft | 272 kts | 285° |
| 2026-04-12 06:01 | 63.19809 | -12.10829 | 21330 ft | 272 kts | 285° |
| 2026-04-12 06:02 | 63.20259 | -12.14857 | 21330 ft | 272 kts | 285° |
| 2026-04-12 06:02 | 63.20714 | -12.18953 | 21330 ft | 272 kts | 285° |
| 2026-04-12 06:02 | 63.21166 | -12.23024 | 21334 ft | 272 kts | 286° |
| 2026-04-12 06:02 | 63.21612 | -12.27054 | 21326 ft | 272 kts | 285° |
| 2026-04-12 06:03 | 63.22063 | -12.31133 | 21328 ft | 271 kts | 285° |
| 2026-04-12 06:03 | 63.22507 | -12.35157 | 21335 ft | 271 kts | 285° |
| 2026-04-12 06:03 | 63.22946 | -12.39183 | 21342 ft | 271 kts | 284° |
| 2026-04-12 06:03 | 63.23394 | -12.43273 | 21335 ft | 271 kts | 285° |
| 2026-04-12 06:04 | 63.23833 | -12.47307 | 21342 ft | 271 kts | 285° |
| 2026-04-12 06:04 | 63.24273 | -12.51339 | 21342 ft | 271 kts | 285° |
| 2026-04-12 06:04 | 63.24713 | -12.55405 | 21338 ft | 271 kts | 285° |
| 2026-04-12 06:04 | 63.25152 | -12.59465 | 21347 ft | 271 kts | 285° |
| 2026-04-12 06:05 | 63.25590 | -12.63523 | 21347 ft | 272 kts | 285° |
| 2026-04-12 06:05 | 63.26011 | -12.67441 | 21348 ft | 272 kts | 284° |
| 2026-04-12 06:05 | 63.26449 | -12.71526 | 21348 ft | 272 kts | 285° |
| 2026-04-12 06:05 | 63.26884 | -12.75586 | 21356 ft | 270 kts | 284° |
| 2026-04-12 06:06 | 63.27316 | -12.79623 | 21357 ft | 268 kts | 285° |
| 2026-04-12 06:06 | 63.27742 | -12.83637 | 21349 ft | 267 kts | 285° |
| 2026-04-12 06:06 | 63.28164 | -12.87662 | 21346 ft | 264 kts | 284° |
| 2026-04-12 06:06 | 63.28587 | -12.91645 | 21346 ft | 264 kts | 285° |
| 2026-04-12 06:07 | 63.29003 | -12.95598 | 21338 ft | 263 kts | 284° |
| 2026-04-12 06:07 | 63.29416 | -12.99524 | 21332 ft | 262 kts | 285° |
| 2026-04-12 06:07 | 63.29825 | -13.03424 | 21349 ft | 262 kts | 284° |
| 2026-04-12 06:07 | 63.30234 | -13.07359 | 21334 ft | 262 kts | 285° |
| 2026-04-12 06:08 | 63.30649 | -13.11325 | 21333 ft | 262 kts | 285° |
| 2026-04-12 06:08 | 63.32288 | -13.27257 | 21352 ft | 261 kts | 285° |
| 2026-04-12 06:08 | 63.34678 | -13.50679 | 21350 ft | 261 kts | 285° |
| 2026-04-12 06:08 | 63.37029 | -13.74190 | 21349 ft | 261 kts | 285° |
| 2026-04-12 06:09 | 63.38830 | -13.92520 | 21349 ft | 260 kts | 285° |
| 2026-04-12 06:09 | 63.41325 | -14.17707 | 21337 ft | 259 kts | 287° |
| 2026-04-12 06:09 | 63.44922 | -14.40260 | 21348 ft | 257 kts | 296° |
| 2026-04-12 06:09 | 63.49188 | -14.62219 | 21366 ft | 257 kts | 295° |
| 2026-04-12 06:10 | 63.52968 | -14.84653 | 21360 ft | 258 kts | 291° |
| 2026-04-12 06:10 | 63.56354 | -15.07162 | 21364 ft | 257 kts | 291° |
| 2026-04-12 06:10 | 63.59920 | -15.29648 | 21361 ft | 257 kts | 292° |
| 2026-04-12 06:10 | 63.63503 | -15.52428 | 21375 ft | 257 kts | 292° |
| 2026-04-12 06:11 | 63.66980 | -15.74901 | 21368 ft | 256 kts | 291° |
| 2026-04-12 06:11 | 63.70298 | -15.96631 | 21376 ft | 256 kts | 290° |
| 2026-04-12 06:11 | 63.73620 | -16.18636 | 21374 ft | 255 kts | 290° |
| 2026-04-12 06:11 | 63.77052 | -16.41687 | 21387 ft | 257 kts | 290° |
| 2026-04-12 06:12 | 63.80467 | -16.64939 | 21398 ft | 259 kts | 289° |
| 2026-04-12 06:12 | 63.82467 | -16.88545 | 21437 ft | 263 kts | 275° |
| 2026-04-12 06:12 | 63.82856 | -17.13553 | 21423 ft | 266 kts | 272° |
| 2026-04-12 06:12 | 63.83593 | -17.37303 | 21402 ft | 267 kts | 277° |
| 2026-04-12 06:13 | 63.84866 | -17.60082 | 21404 ft | 269 kts | 278° |
| 2026-04-12 06:13 | 63.86174 | -17.85367 | 21405 ft | 271 kts | 276° |
| 2026-04-12 06:13 | 63.87098 | -18.08820 | 21399 ft | 272 kts | 275° |
| 2026-04-12 06:13 | 63.88057 | -18.33376 | 21418 ft | 274 kts | 275° |
| 2026-04-12 06:14 | 63.89043 | -18.58326 | 21409 ft | 275 kts | 275° |
| 2026-04-12 06:14 | 63.89604 | -18.73171 | 21408 ft | 276 kts | 274° |
| 2026-04-12 06:14 | 63.90502 | -18.98133 | 21396 ft | 278 kts | 273° |
| 2026-04-12 06:14 | 63.91361 | -19.23133 | 21356 ft | 279 kts | 274° |
| 2026-04-12 06:15 | 63.92048 | -19.43965 | 21393 ft | 280 kts | 274° |
| 2026-04-12 06:15 | 63.92775 | -19.67337 | 21398 ft | 282 kts | 272° |
| 2026-04-12 06:15 | 63.93469 | -19.90744 | 21435 ft | 284 kts | 272° |
| 2026-04-12 06:15 | 63.93826 | -20.03308 | 21459 ft | 285 kts | 272° |
| 2026-04-12 06:16 | 63.93955 | -20.08058 | 21402 ft | 290 kts | 273° |
| 2026-04-12 06:16 | 63.94069 | -20.12205 | 21025 ft | 297 kts | 273° |
| 2026-04-12 06:16 | 63.94184 | -20.16435 | 20661 ft | 298 kts | 273° |
| 2026-04-12 06:16 | 63.94318 | -20.21440 | 20229 ft | 297 kts | 274° |
| 2026-04-12 06:17 | 63.94442 | -20.26139 | 19825 ft | 297 kts | 274° |
| 2026-04-12 06:17 | 63.94566 | -20.30892 | 19416 ft | 296 kts | 274° |
| 2026-04-12 06:17 | 63.94542 | -20.35581 | 19020 ft | 297 kts | 266° |
| 2026-04-12 06:17 | 63.94287 | -20.40260 | 18628 ft | 296 kts | 262° |
| 2026-04-12 06:18 | 63.93962 | -20.44901 | 18235 ft | 296 kts | 261° |
| 2026-04-12 06:18 | 63.93625 | -20.49432 | 17844 ft | 295 kts | 262° |
| 2026-04-12 06:18 | 63.93275 | -20.54049 | 17439 ft | 294 kts | 262° |
| 2026-04-12 06:18 | 63.92942 | -20.58598 | 17049 ft | 292 kts | 262° |
| 2026-04-12 06:19 | 63.92610 | -20.63134 | 16651 ft | 291 kts | 262° |
| 2026-04-12 06:19 | 63.92281 | -20.67593 | 16262 ft | 290 kts | 262° |
| 2026-04-12 06:19 | 63.91951 | -20.72038 | 15856 ft | 288 kts | 262° |
| 2026-04-12 06:19 | 63.91617 | -20.76531 | 15483 ft | 286 kts | 262° |
| 2026-04-12 06:20 | 63.91285 | -20.80994 | 15104 ft | 284 kts | 262° |
| 2026-04-12 06:20 | 63.90953 | -20.85399 | 14721 ft | 282 kts | 262° |
| 2026-04-12 06:20 | 63.90622 | -20.89792 | 14342 ft | 281 kts | 262° |
| 2026-04-12 06:20 | 63.90292 | -20.94150 | 13961 ft | 280 kts | 263° |
| 2026-04-12 06:21 | 63.89962 | -20.98496 | 13591 ft | 278 kts | 263° |
| 2026-04-12 06:21 | 63.89635 | -21.02774 | 13269 ft | 275 kts | 263° |
| 2026-04-12 06:21 | 63.89303 | -21.07060 | 12973 ft | 276 kts | 262° |
| 2026-04-12 06:21 | 63.88973 | -21.11362 | 12686 ft | 278 kts | 262° |
| 2026-04-12 06:22 | 63.88643 | -21.15665 | 12412 ft | 278 kts | 262° |
| 2026-04-12 06:22 | 63.88311 | -21.19939 | 12152 ft | 277 kts | 263° |
| 2026-04-12 06:22 | 63.87973 | -21.24269 | 11872 ft | 277 kts | 262° |
| 2026-04-12 06:22 | 63.87638 | -21.28546 | 11559 ft | 278 kts | 262° |
| 2026-04-12 06:23 | 63.87297 | -21.32881 | 11234 ft | 278 kts | 262° |
| 2026-04-12 06:23 | 63.86958 | -21.37183 | 10917 ft | 279 kts | 262° |
| 2026-04-12 06:23 | 63.86618 | -21.41471 | 10603 ft | 279 kts | 262° |
| 2026-04-12 06:23 | 63.86271 | -21.45833 | 10275 ft | 278 kts | 262° |
| 2026-04-12 06:24 | 63.85927 | -21.50139 | 9960 ft | 278 kts | 262° |
| 2026-04-12 06:24 | 63.85582 | -21.54438 | 9647 ft | 279 kts | 262° |
| 2026-04-12 06:24 | 63.85239 | -21.58745 | 9320 ft | 276 kts | 263° |
| 2026-04-12 06:24 | 63.84901 | -21.62933 | 9001 ft | 270 kts | 263° |
| 2026-04-12 06:25 | 63.84568 | -21.67030 | 8687 ft | 265 kts | 262° |
| 2026-04-12 06:25 | 63.84227 | -21.71174 | 8363 ft | 267 kts | 262° |
| 2026-04-12 06:25 | 63.83888 | -21.75319 | 8072 ft | 269 kts | 262° |
| 2026-04-12 06:25 | 63.83545 | -21.79486 | 7780 ft | 270 kts | 262° |
| 2026-04-12 06:26 | 63.83199 | -21.83681 | 7486 ft | 272 kts | 262° |
| 2026-04-12 06:26 | 63.82849 | -21.87926 | 7200 ft | 273 kts | 262° |
| 2026-04-12 06:26 | 63.82503 | -21.92096 | 6914 ft | 274 kts | 262° |
| 2026-04-12 06:26 | 63.82149 | -21.96353 | 6621 ft | 273 kts | 262° |
| 2026-04-12 06:27 | 63.81803 | -22.00527 | 6334 ft | 268 kts | 262° |
| 2026-04-12 06:27 | 63.81463 | -22.04590 | 6039 ft | 265 kts | 262° |
| 2026-04-12 06:27 | 63.81103 | -22.08670 | 5758 ft | 262 kts | 261° |
| 2026-04-12 06:27 | 63.80596 | -22.12619 | 5499 ft | 261 kts | 256° |
| 2026-04-12 06:28 | 63.80017 | -22.16486 | 5236 ft | 260 kts | 255° |
| 2026-04-12 06:28 | 63.79429 | -22.20404 | 4967 ft | 261 kts | 255° |
| 2026-04-12 06:28 | 63.78844 | -22.24276 | 4704 ft | 262 kts | 256° |
| 2026-04-12 06:28 | 63.78246 | -22.28190 | 4438 ft | 263 kts | 256° |
| 2026-04-12 06:29 | 63.77668 | -22.32043 | 4173 ft | 261 kts | 256° |
| 2026-04-12 06:29 | 63.77125 | -22.35927 | 3899 ft | 255 kts | 265° |
| 2026-04-12 06:29 | 63.77132 | -22.39832 | 3630 ft | 242 kts | 288° |
| 2026-04-12 06:29 | 63.77599 | -22.43325 | 3394 ft | 228 kts | 298° |
| 2026-04-12 06:30 | 63.78106 | -22.46565 | 3199 ft | 211 kts | 300° |
| 2026-04-12 06:30 | 63.78611 | -22.49625 | 3010 ft | 205 kts | 300° |
| 2026-04-12 06:30 | 63.79101 | -22.52594 | 2842 ft | 202 kts | 300° |
| 2026-04-12 06:30 | 63.79659 | -22.55434 | 2675 ft | 194 kts | 311° |
| 2026-04-12 06:31 | 63.80509 | -22.57769 | 2522 ft | 191 kts | 325° |
| 2026-04-12 06:31 | 63.81591 | -22.59499 | 2384 ft | 188 kts | 336° |
| 2026-04-12 06:31 | 63.82806 | -22.60229 | 2238 ft | 180 kts | 358° |
| 2026-04-12 06:31 | 63.84047 | -22.60452 | 2092 ft | 178 kts | 1° |
| 2026-04-12 06:32 | 63.85274 | -22.60500 | 1961 ft | 176 kts | 1° |
| 2026-04-12 06:32 | 63.86494 | -22.60516 | 1826 ft | 175 kts | 2° |
| 2026-04-12 06:32 | 63.87684 | -22.60523 | 1776 ft | 164 kts | 3° |
| 2026-04-12 06:32 | 63.88746 | -22.60521 | 1716 ft | 142 kts | 3° |
| 2026-04-12 06:33 | 63.89684 | -22.60530 | 1535 ft | 125 kts | 3° |
| 2026-04-12 06:33 | 63.90486 | -22.60535 | 1385 ft | 101 kts | 3° |
| 2026-04-12 06:33 | 63.91156 | -22.60541 | 1273 ft | 94 kts | 3° |
| 2026-04-12 06:33 | 63.91731 | -22.60537 | 1149 ft | 69 kts | 4° |
| 2026-04-12 06:34 | 63.92178 | -22.60540 | 1054 ft | 62 kts | 2° |
| 2026-04-12 06:34 | 63.92589 | -22.60540 | 954 ft | 56 kts | 4° |
| 2026-04-12 06:34 | 63.92978 | -22.60538 | 890 ft | 56 kts | 2° |
| 2026-04-12 06:34 | 63.93392 | -22.60538 | 813 ft | 63 kts | 3° |
| 2026-04-12 06:35 | 63.94289 | -22.60574 | 698 ft | 64 kts | 2° |
| 2026-04-12 06:35 | 63.94736 | -22.60555 | 564 ft | 64 kts | 4° |
| 2026-04-12 06:35 | 63.95190 | -22.60561 | 441 ft | 66 kts | 3° |
| 2026-04-12 06:36 | 63.95647 | -22.60548 | 339 ft | 64 kts | 3° |
| 2026-04-12 06:36 | 63.96096 | -22.60544 | 254 ft | 62 kts | 2° |
| 2026-04-12 06:36 | 63.96525 | -22.60548 | 179 ft | 62 kts | 1° |
| 2026-04-12 06:36 | 63.96900 | -22.60550 | 147 ft | 31 kts | 2° |
| 2026-04-12 06:37 | 63.97068 | -22.60550 | 152 ft | 22 kts | 1° |
| 2026-04-12 06:37 | 63.97240 | -22.60552 | 157 ft | 26 kts | 1° |
| 2026-04-12 06:37 | 63.97399 | -22.60511 | 161 ft | 16 kts | 66° |
| 2026-04-12 06:37 | 63.97360 | -22.60250 | 161 ft | 20 kts | 111° |
| 2026-04-12 06:38 | 63.97308 | -22.59966 | 162 ft | 17 kts | 111° |
| 2026-04-12 06:38 | 63.97345 | -22.59855 | 165 ft | 8 kts | 34° |
| 2026-04-12 06:38 | 63.97310 | -22.59701 | 166 ft | 20 kts | 153° |
| 2026-04-12 06:38 | 63.97348 | -22.59440 | 169 ft | 20 kts | 45° |
| 2026-04-12 06:39 | 63.97449 | -22.59241 | 172 ft | 13 kts | 34° |
| 2026-04-12 06:39 | 63.97452 | -22.59093 | 173 ft | 9 kts | 112° |
| 2026-04-12 06:39 | 63.97445 | -22.59050 | 172 ft | 0 kts | 113° |
| 2026-04-12 06:39 | 63.97445 | -22.59049 | 172 ft | 0 kts | 110° |